Time;durP1;ratioP1;P1;durP2;ratioP2;P2;SDS_P1;SDS_P2;PMS_P1;PMS_P2;Temp;Humidity;BMP_temperature;BMP_pressure;BME280_temperature;BME280_humidity;BME280_pressure;Samples;Min_cycle;Max_cycle;Signal;HPM_P1;HPM_P2
2022/09/20 00:01:30;;;;;;;1.30;1.20;;;;;;;10.00;49.68;93949.59;5035502;28;20455;-79
2022/09/20 00:03:58;;;;;;;2.33;1.40;;;;;;;9.94;49.23;93950.81;5060731;28;20389;-78
2022/09/20 00:06:30;;;;;;;1.40;1.30;;;;;;;9.60;50.09;93942.63;5028143;28;20037;-78
2022/09/20 00:08:56;;;;;;;1.60;1.50;;;;;;;9.53;50.22;93934.34;5028848;28;20029;-79
2022/09/20 00:11:24;;;;;;;3.40;1.70;;;;;;;9.56;50.00;93939.03;5059863;28;20040;-78
2022/09/20 00:13:53;;;;;;;2.15;1.60;;;;;;;9.25;50.24;93923.81;5027767;28;20035;-79
2022/09/20 00:16:22;;;;;;;1.85;1.60;;;;;;;9.45;50.32;93947.22;5043282;28;20976;-78
2022/09/20 00:18:52;;;;;;;1.98;1.45;;;;;;;9.32;50.61;93950.75;5027054;28;20432;-77
2022/09/20 00:21:21;;;;;;;1.90;1.33;;;;;;;9.10;50.68;93897.63;5027049;28;20255;-78
2022/09/20 00:23:46;;;;;;;1.42;1.33;;;;;;;9.38;50.72;93930.97;5027601;28;20050;-78
2022/09/20 00:26:12;;;;;;;1.40;1.20;;;;;;;9.26;50.47;93909.47;5027841;28;20032;-78
2022/09/20 00:28:39;;;;;;;1.50;1.40;;;;;;;9.18;50.56;93883.66;5028545;28;20630;-78
2022/09/20 00:31:04;;;;;;;1.42;1.33;;;;;;;9.61;50.57;93920.31;5028418;28;20021;-78
2022/09/20 00:36:15;;;;;;;0.90;0.90;;;;;;;9.84;50.06;93943.88;5028744;28;20419;-78
2022/09/20 00:38:40;;;;;;;1.10;0.98;;;;;;;9.91;50.00;93940.78;5028793;28;20021;-78
2022/09/20 00:41:06;;;;;;;2.97;0.98;;;;;;;9.67;50.15;93941.13;5029122;28;20512;-77
2022/09/20 00:43:59;;;;;;;1.20;1.10;;;;;;;9.93;49.66;93949.22;5029881;28;20578;-79
2022/09/20 00:46:39;;;;;;;1.05;0.95;;;;;;;10.17;49.54;93954.97;5025819;28;20383;-78
2022/09/20 00:49:15;;;;;;;1.30;1.20;;;;;;;10.10;48.83;93953.84;5029295;28;20021;-78
2022/09/20 00:51:45;;;;;;;1.20;1.00;;;;;;;9.86;49.26;93959.53;5029972;28;20047;-78
2022/09/20 00:54:15;;;;;;;1.02;1.00;;;;;;;9.91;48.98;93945.31;5028979;28;20108;-77
2022/09/20 00:56:42;;;;;;;1.02;0.93;;;;;;;9.77;49.14;93961.34;5027330;28;20025;-78
2022/09/20 00:59:32;;;;;;;1.30;1.10;;;;;;;9.70;49.14;93971.59;5030169;28;20075;-78
2022/09/20 01:02:05;;;;;;;1.20;1.10;;;;;;;9.48;50.04;93961.78;5044912;28;20040;-79
2022/09/20 01:04:33;;;;;;;0.80;0.80;;;;;;;9.67;49.63;93949.09;5028328;28;20025;-79
2022/09/20 01:07:03;;;;;;;1.30;1.20;;;;;;;9.75;49.22;93936.94;5028589;28;20021;-78
2022/09/20 01:09:28;;;;;;;1.13;1.02;;;;;;;9.69;49.25;93943.47;5025822;28;20393;-78
2022/09/20 01:11:56;;;;;;;1.10;1.00;;;;;;;9.67;49.09;93961.59;5029875;28;20025;-77
2022/09/20 01:14:24;;;;;;;1.20;1.00;;;;;;;9.71;48.71;93942.09;5028851;28;20023;-78
2022/09/20 01:16:52;;;;;;;1.08;0.98;;;;;;;9.78;48.49;93931.81;5031610;28;20026;-78
2022/09/20 01:19:31;;;;;;;1.27;1.20;;;;;;;9.73;48.27;93928.53;5031057;28;20029;-78
2022/09/20 01:21:59;;;;;;;1.27;1.17;;;;;;;9.79;47.76;93940.56;5027339;28;20045;-78
2022/09/20 01:24:45;;;;;;;1.40;1.30;;;;;;;9.51;47.71;93907.28;5059607;28;20021;-78
2022/09/20 01:27:25;;;;;;;1.30;1.20;;;;;;;9.62;47.82;93929.84;5057913;28;20032;-78
2022/09/20 01:30:10;;;;;;;1.55;1.40;;;;;;;9.69;47.34;93914.25;5026287;28;20083;-78
2022/09/20 01:32:53;;;;;;;1.88;1.20;;;;;;;9.92;47.11;93939.72;5057121;28;20060;-79
2022/09/20 01:35:20;;;;;;;1.30;1.20;;;;;;;9.52;47.30;93922.13;5028652;28;20029;-78
2022/09/20 01:37:57;;;;;;;1.40;1.30;;;;;;;9.65;47.07;93940.66;5027959;28;20029;-78
2022/09/20 01:40:34;;;;;;;1.75;1.40;;;;;;;9.79;47.47;93945.88;5027302;28;20229;-78
2022/09/20 01:43:32;;;;;;;1.40;1.30;;;;;;;9.98;46.97;93946.44;5028716;28;20025;-78
2022/09/20 01:46:06;;;;;;;1.40;1.30;;;;;;;10.02;46.88;93941.31;5059613;28;20309;-78
2022/09/20 01:48:39;;;;;;;1.38;1.27;;;;;;;9.82;47.05;93916.06;5026505;28;20037;-79
2022/09/20 01:51:24;;;;;;;1.85;1.38;;;;;;;9.96;46.74;93953.94;5029387;28;20100;-79
2022/09/20 01:54:08;;;;;;;;;;;;;;;9.95;46.86;93952.38;5059470;28;20493;-79
2022/09/20 01:56:58;;;;;;;1.70;1.27;;;;;;;9.73;47.51;93945.22;5029502;28;19945;-79
2022/09/20 01:59:36;;;;;;;1.42;1.33;;;;;;;9.91;47.30;93942.66;5058778;28;20592;-78
2022/09/20 02:02:25;;;;;;;1.50;1.40;;;;;;;9.62;47.34;93921.88;5058689;28;20025;-79
2022/09/20 02:05:03;;;;;;;1.30;1.20;;;;;;;9.90;47.45;93931.25;5028628;28;20565;-77
2022/09/20 02:07:40;;;;;;;1.23;1.10;;;;;;;9.86;47.37;93927.63;5058253;28;20390;-78
2022/09/20 02:10:36;;;;;;;1.58;1.40;;;;;;;9.67;47.37;93909.28;5027697;28;20032;-79
2022/09/20 02:13:21;;;;;;;4.18;1.40;;;;;;;9.56;47.70;93893.88;5044091;28;20084;-79
2022/09/20 02:16:08;;;;;;;0.98;0.98;;;;;;;9.50;48.12;93914.47;5061214;28;20496;-78
2022/09/20 02:18:34;;;;;;;1.20;1.10;;;;;;;9.57;48.04;93914.03;5026912;28;20025;-77
2022/09/20 02:21:05;;;;;;;1.48;1.27;;;;;;;9.50;48.38;93909.16;5027490;28;20458;-78
2022/09/20 02:24:09;;;;;;;1.33;1.23;;;;;;;9.33;48.10;93909.06;5028344;28;20448;-78
2022/09/20 02:26:35;;;;;;;1.48;1.38;;;;;;;9.31;48.00;93912.00;5014244;28;20048;-78
2022/09/20 02:29:09;;;;;;;1.38;1.27;;;;;;;9.34;47.55;93911.41;5027325;28;20025;-78
2022/09/20 02:32:13;;;;;;;1.45;1.35;;;;;;;9.39;48.53;93919.22;5028665;28;20170;-78
2022/09/20 02:34:38;;;;;;;1.48;1.38;;;;;;;9.37;48.56;93921.44;5028803;28;20441;-78
2022/09/20 02:37:13;;;;;;;1.75;1.40;;;;;;;9.43;48.82;93927.41;5027396;28;20025;-79
2022/09/20 02:39:53;;;;;;;1.57;1.47;;;;;;;9.52;49.41;93922.13;5029559;28;20074;-79
2022/09/20 02:42:29;;;;;;;1.50;1.40;;;;;;;9.54;48.85;93912.78;5030907;28;20076;-77
2022/09/20 02:44:57;;;;;;;1.60;1.50;;;;;;;9.71;48.77;93933.34;5061370;28;20488;-78
2022/09/20 02:47:32;;;;;;;2.15;1.55;;;;;;;9.59;48.75;93931.22;5030816;28;20336;-78
2022/09/20 02:50:30;;;;;;;1.40;1.30;;;;;;;9.65;48.88;93934.53;5029273;28;20059;-79
2022/09/20 02:53:05;;;;;;;2.80;1.58;;;;;;;9.73;49.09;93936.50;5030008;28;20029;-79
2022/09/20 02:55:59;;;;;;;1.65;1.55;;;;;;;9.66;49.22;93933.47;5040418;28;20413;-79
2022/09/20 02:58:48;;;;;;;1.58;1.40;;;;;;;9.88;48.93;93941.38;5031600;28;20025;-78
2022/09/20 03:01:23;;;;;;;1.60;1.50;;;;;;;9.91;49.32;93943.44;5029161;28;20031;-79
2022/09/20 03:04:20;;;;;;;1.50;1.40;;;;;;;9.43;49.46;93922.88;5030945;28;20072;-78
2022/09/20 03:06:57;;;;;;;1.40;1.30;;;;;;;9.29;49.93;93946.00;5060579;28;20025;-78
2022/09/20 03:09:43;;;;;;;1.55;1.35;;;;;;;9.23;49.82;93930.53;5032037;28;20104;-77
2022/09/20 03:12:32;;;;;;;;;;;;;;;9.25;50.27;93944.25;5030169;28;20389;-77
2022/09/20 03:15:18;;;;;;;2.58;1.55;;;;;;;9.27;50.09;93945.56;5028348;28;20361;-78
2022/09/20 03:18:07;;;;;;;1.83;1.58;;;;;;;8.93;50.56;93945.25;5030982;28;20021;-78
2022/09/20 03:20:35;;;;;;;1.92;1.60;;;;;;;8.74;50.47;93912.78;5031325;28;20562;-78
2022/09/20 03:23:21;;;;;;;2.00;1.35;;;;;;;8.79;50.43;93952.44;5028313;28;20056;-79
2022/09/20 03:26:01;;;;;;;1.67;1.58;;;;;;;8.61;50.88;93913.59;5030376;28;20032;-79
2022/09/20 03:28:38;;;;;;;1.92;1.67;;;;;;;8.61;51.51;93958.66;5032574;28;20075;-79
2022/09/20 03:31:52;;;;;;;1.73;1.60;;;;;;;8.68;51.35;93962.47;5031091;28;20060;-77
2022/09/20 03:34:44;;;;;;;2.15;1.60;;;;;;;8.26;51.24;93905.31;5029956;28;20017;-78
2022/09/20 03:37:12;;;;;;;2.10;1.95;;;;;;;8.74;50.88;93953.34;5058026;28;20037;-78
2022/09/20 03:39:59;;;;;;;2.67;1.50;;;;;;;8.92;50.16;93960.38;5031527;28;20039;-78
2022/09/20 03:42:28;;;;;;;1.60;1.30;;;;;;;8.69;49.90;93916.31;5029279;28;20025;-78
2022/09/20 03:45:15;;;;;;;0.95;0.93;;;;;;;8.81;50.16;93961.66;5029410;28;20108;-78
2022/09/20 03:47:51;;;;;;;0.98;0.88;;;;;;;8.49;50.19;93933.44;5031128;28;20068;-77
2022/09/20 03:50:42;;;;;;;1.75;1.15;;;;;;;8.88;50.30;93966.56;5030048;28;20025;-77
2022/09/20 03:53:19;;;;;;;0.90;0.90;;;;;;;8.81;50.19;93963.53;5016859;28;20040;-78
2022/09/20 03:56:10;;;;;;;0.93;0.88;;;;;;;8.95;50.09;93967.72;5029749;28;20028;-79
2022/09/20 03:58:48;;;;;;;0.90;0.90;;;;;;;9.18;49.31;93955.31;5029877;28;20025;-78
2022/09/20 04:01:28;;;;;;;1.33;1.20;;;;;;;9.12;49.19;93956.50;5028384;28;20072;-78
2022/09/20 04:04:10;;;;;;;1.30;1.08;;;;;;;8.94;49.59;93952.13;5029988;28;20055;-78
2022/09/20 04:06:57;;;;;;;1.35;1.20;;;;;;;9.13;49.55;93965.25;5029933;28;20094;-80
2022/09/20 04:09:55;;;;;;;1.08;1.02;;;;;;;9.17;49.44;93974.97;5029343;28;20621;-78
2022/09/20 04:12:27;;;;;;;1.13;1.02;;;;;;;9.10;49.36;93963.94;5059776;28;20025;-77
2022/09/20 04:15:08;;;;;;;2.10;1.30;;;;;;;9.13;49.31;93986.47;5029761;28;20025;-79
2022/09/20 04:17:52;;;;;;;1.58;1.00;;;;;;;9.29;49.64;93991.13;5030021;28;20109;-77
2022/09/20 04:20:38;;;;;;;1.13;1.00;;;;;;;8.85;50.19;93983.09;5030920;28;20028;-80
2022/09/20 04:23:35;;;;;;;1.35;1.00;;;;;;;9.07;50.25;93998.25;5028238;28;20021;-80
2022/09/20 04:26:02;;;;;;;1.30;1.15;;;;;;;8.90;50.25;93985.63;5028806;28;20076;-78
2022/09/20 04:28:38;;;;;;;1.23;1.00;;;;;;;9.05;50.89;93995.88;5029727;28;20489;-77
2022/09/20 04:31:45;;;;;;;1.20;1.10;;;;;;;8.76;50.09;93929.16;5027595;28;20072;-79
2022/09/20 04:34:20;;;;;;;1.23;0.95;;;;;;;9.53;49.60;94000.72;4990277;28;20496;-79
2022/09/20 04:36:56;;;;;;;1.10;1.00;;;;;;;9.46;49.56;94006.44;5030466;28;20029;-79
2022/09/20 04:39:28;;;;;;;1.20;1.10;;;;;;;9.40;49.09;94005.75;5027979;28;20074;-80
2022/09/20 04:42:30;;;;;;;1.52;1.05;;;;;;;9.57;48.69;94014.94;5060375;28;20021;-79
2022/09/20 04:45:15;;;;;;;1.33;1.23;;;;;;;9.60;48.70;94014.34;5028393;28;20583;-80
2022/09/20 04:48:05;;;;;;;1.10;1.07;;;;;;;9.54;48.76;94015.53;5035930;28;20194;-80
2022/09/20 04:51:02;;;;;;;1.33;1.23;;;;;;;9.26;49.32;93977.69;5060610;28;20350;-80
2022/09/20 04:53:30;;;;;;;1.23;1.13;;;;;;;9.53;48.90;94006.03;5028595;28;20025;-79
2022/09/20 04:56:20;;;;;;;1.15;0.90;;;;;;;9.47;48.74;93993.94;5028800;28;20084;-80
2022/09/20 04:58:48;;;;;;;1.33;1.23;;;;;;;9.54;49.08;94020.84;5059479;28;20025;-79
2022/09/20 05:01:45;;;;;;;1.20;1.10;;;;;;;9.38;49.02;93976.09;5061020;28;20564;-79
2022/09/20 05:04:46;;;;;;;1.58;1.45;;;;;;;9.64;48.68;93983.44;5029319;28;20032;-78
2022/09/20 05:07:29;;;;;;;1.38;1.27;;;;;;;9.74;48.41;94010.53;5029701;28;20032;-81
2022/09/20 05:10:30;;;;;;;1.20;1.10;;;;;;;9.69;48.59;94012.50;5027212;28;20025;-78
2022/09/20 05:12:59;;;;;;;1.60;1.20;;;;;;;9.65;48.57;94012.34;5030631;28;20040;-79
2022/09/20 05:15:31;;;;;;;1.50;1.02;;;;;;;9.42;49.12;94011.56;5027165;28;20202;-79
2022/09/20 05:18:19;;;;;;;1.00;1.00;;;;;;;9.30;49.23;93991.91;5029506;28;20024;-79
2022/09/20 05:21:14;;;;;;;1.05;0.90;;;;;;;9.35;49.56;94015.69;5058922;28;20072;-79
2022/09/20 05:23:54;;;;;;;1.10;1.08;;;;;;;9.68;49.10;94021.59;5013069;28;20044;-78
2022/09/20 05:26:38;;;;;;;0.90;0.90;;;;;;;9.62;49.35;94028.09;5028003;28;20059;-79
2022/09/20 05:29:16;;;;;;;1.20;1.10;;;;;;;9.91;48.94;94023.16;5031597;28;20018;-80
2022/09/20 05:31:48;;;;;;;1.52;1.17;;;;;;;9.98;48.64;94020.03;5060076;28;20538;-79
2022/09/20 05:34:41;;;;;;;1.10;0.95;;;;;;;10.03;48.38;94026.03;5028728;28;20025;-78
2022/09/20 05:37:31;;;;;;;1.05;1.00;;;;;;;9.96;48.38;93993.81;5027308;28;20021;-79
2022/09/20 05:40:05;;;;;;;3.78;1.98;;;;;;;10.10;48.17;93991.84;5030614;28;20036;-80
2022/09/20 05:42:41;;;;;;;3.90;1.80;;;;;;;10.16;47.57;93992.50;5037353;28;20017;-79
2022/09/20 05:45:44;;;;;;;2.58;1.80;;;;;;;10.27;47.84;94020.38;5027592;28;20025;-78
2022/09/20 05:48:14;;;;;;;1.92;1.25;;;;;;;9.98;47.93;94010.22;5029637;28;20036;-79
2022/09/20 05:50:46;;;;;;;3.85;1.77;;;;;;;10.17;48.07;94028.63;5055961;28;20112;-79
2022/09/20 05:53:32;;;;;;;10.77;3.17;;;;;;;10.19;48.06;94021.91;5027012;28;20052;-79
2022/09/20 05:56:19;;;;;;;7.65;3.40;;;;;;;10.38;47.90;94012.94;5055610;28;20112;-79
2022/09/20 05:58:47;;;;;;;6.75;3.50;;;;;;;10.37;47.38;94022.78;5057695;28;20021;-80
2022/09/20 06:01:23;;;;;;;4.95;2.63;;;;;;;10.37;47.65;94027.34;5024076;28;20094;-79
2022/09/20 06:04:38;;;;;;;3.05;1.85;;;;;;;10.10;48.15;94018.41;5027613;28;20554;-80
2022/09/20 06:07:21;;;;;;;1.60;1.10;;;;;;;10.04;48.50;93998.38;5020078;28;20025;-79
2022/09/20 06:10:14;;;;;;;1.63;1.17;;;;;;;9.96;48.39;93993.00;5021825;28;20382;-79
2022/09/20 06:12:54;;;;;;;1.25;1.15;;;;;;;9.79;48.39;93954.63;5023706;28;20045;-79
2022/09/20 06:15:39;;;;;;;1.30;1.02;;;;;;;10.46;47.99;94025.50;5029325;28;20021;-79
2022/09/20 06:18:33;;;;;;;2.28;1.20;;;;;;;10.73;47.78;94019.97;5031664;28;20025;-79
2022/09/20 06:21:17;;;;;;;1.83;1.23;;;;;;;10.82;47.34;94027.97;5030243;28;20045;-80
2022/09/20 06:23:43;;;;;;;1.98;1.27;;;;;;;10.56;46.90;93956.09;5032056;28;20033;-79
2022/09/20 06:26:16;;;;;;;2.60;1.40;;;;;;;11.00;46.90;94011.72;5033175;28;20033;-79
2022/09/20 06:28:47;;;;;;;1.45;1.13;;;;;;;11.10;46.32;94014.09;5062311;28;20031;-80
2022/09/20 06:31:15;;;;;;;0.70;0.70;;;;;;;10.83;46.57;94003.72;5030830;28;20026;-79
2022/09/20 06:34:14;;;;;;;0.93;0.90;;;;;;;10.89;47.10;94002.50;5058851;28;20426;-79
2022/09/20 06:42:35;;;;;;;1.50;0.90;;;;;;;10.71;47.82;93993.66;5027637;28;20043;-80
2022/09/20 06:45:00;;;;;;;1.40;1.30;;;;;;;10.78;47.27;93974.59;5028048;28;20028;-79
2022/09/20 06:47:25;;;;;;;0.90;0.85;;;;;;;11.05;47.39;94037.44;5026838;28;20396;-79
2022/09/20 06:49:51;;;;;;;1.63;0.95;;;;;;;11.10;47.45;94019.41;5028904;28;20400;-79
2022/09/20 06:52:19;;;;;;;1.20;1.00;;;;;;;11.24;46.97;94023.84;5026986;28;20041;-80
2022/09/20 06:54:46;;;;;;;0.88;0.88;;;;;;;11.28;46.90;94027.44;5034984;28;20048;-79
2022/09/20 06:57:20;;;;;;;1.00;0.65;;;;;;;11.15;46.86;93995.31;5038133;28;20106;-78
2022/09/20 06:59:45;;;;;;;0.98;0.82;;;;;;;11.29;46.97;94007.72;5028999;28;20022;-79
2022/09/20 07:02:11;;;;;;;0.93;0.80;;;;;;;11.17;47.75;94003.78;5029691;28;20060;-78
2022/09/20 07:04:36;;;;;;;0.77;0.77;;;;;;;11.48;47.40;94019.63;5030262;28;20124;-80
2022/09/20 07:07:03;;;;;;;0.80;0.73;;;;;;;11.48;46.74;94037.50;5029519;28;20586;-79
2022/09/20 07:09:30;;;;;;;1.15;0.70;;;;;;;11.40;46.82;94012.41;5030185;28;20497;-79
2022/09/20 07:11:57;;;;;;;0.60;0.60;;;;;;;11.16;46.61;94007.53;5031304;28;20043;-80
2022/09/20 07:14:25;;;;;;;1.50;0.80;;;;;;;11.43;46.25;94037.66;5029396;28;20021;-79
2022/09/20 07:16:51;;;;;;;0.68;0.68;;;;;;;11.49;45.05;94042.47;5028409;28;20025;-79
2022/09/20 07:19:16;;;;;;;0.70;0.70;;;;;;;11.18;45.20;94001.91;5030305;28;20072;-80
2022/09/20 07:21:42;;;;;;;0.77;0.70;;;;;;;11.24;45.82;94045.13;5029279;28;20136;-79
2022/09/20 07:24:07;;;;;;;0.63;0.63;;;;;;;10.92;46.11;94007.19;5029330;28;20115;-79
2022/09/20 07:26:33;;;;;;;0.70;0.70;;;;;;;11.28;45.67;94040.75;5027338;28;20549;-79
2022/09/20 07:28:59;;;;;;;0.73;0.68;;;;;;;11.16;45.15;94010.19;5037406;28;20144;-80
2022/09/20 07:31:26;;;;;;;13.25;1.55;;;;;;;10.96;45.59;94024.09;5028547;28;20540;-80
2022/09/20 07:33:52;;;;;;;1.35;0.80;;;;;;;10.76;46.06;93995.41;5058188;28;20029;-79
2022/09/20 07:36:17;;;;;;;1.45;1.17;;;;;;;11.17;46.89;94030.41;5030048;28;20028;-79
2022/09/20 07:38:52;;;;;;;0.77;0.77;;;;;;;11.04;46.83;94010.03;5043924;28;20021;-79
2022/09/20 07:41:18;;;;;;;0.77;0.75;;;;;;;11.17;45.61;94006.44;5029136;28;20571;-79
2022/09/20 07:43:45;;;;;;;1.30;1.00;;;;;;;11.55;46.29;94043.94;5028362;28;20040;-79
2022/09/20 07:46:13;;;;;;;3.85;0.77;;;;;;;11.31;45.85;93981.53;5028182;28;20079;-79
2022/09/20 07:48:39;;;;;;;3.08;1.08;;;;;;;11.75;45.59;94029.19;5028515;28;20033;-78
2022/09/20 07:51:08;;;;;;;0.98;0.80;;;;;;;11.96;45.86;94040.00;5029880;28;20126;-79
2022/09/20 07:53:35;;;;;;;0.80;0.80;;;;;;;11.55;45.46;94035.16;5025035;28;20029;-80
2022/09/20 07:56:10;;;;;;;1.92;0.90;;;;;;;11.21;45.67;93977.31;5022686;28;20032;-80
2022/09/20 07:58:35;;;;;;;;;;;;;;;11.60;45.56;94027.81;5027603;28;20491;-80
2022/09/20 08:01:04;;;;;;;0.80;0.80;;;;;;;11.45;45.10;94014.91;5026119;28;20012;-79
2022/09/20 08:03:31;;;;;;;1.08;0.95;;;;;;;11.53;45.60;94027.50;5028932;28;20098;-80
2022/09/20 08:06:06;;;;;;;0.85;0.82;;;;;;;11.51;45.70;93978.28;5026752;28;20124;-80
2022/09/20 08:08:37;;;;;;;0.90;0.90;;;;;;;11.89;45.31;94024.50;5028071;28;20852;-80
2022/09/20 08:11:06;;;;;;;0.98;0.85;;;;;;;11.40;45.53;93974.34;5030411;28;20427;-78
2022/09/20 08:13:38;;;;;;;0.82;0.82;;;;;;;11.82;45.12;94018.88;5028835;28;20036;-79
2022/09/20 08:16:07;;;;;;;1.17;1.00;;;;;;;12.06;45.68;94022.91;5028218;28;20025;-79
2022/09/20 08:18:33;;;;;;;1.27;0.70;;;;;;;12.10;45.65;94029.94;5029703;28;20025;-79
2022/09/20 08:21:05;;;;;;;1.45;0.80;;;;;;;11.90;44.39;94001.28;5028452;28;20045;-79
2022/09/20 08:23:33;;;;;;;4.00;1.25;;;;;;;11.74;44.73;94003.66;5029971;28;20021;-79
2022/09/20 08:25:58;;;;;;;0.80;0.80;;;;;;;11.88;45.25;94025.56;5028530;28;20036;-81
2022/09/20 08:28:23;;;;;;;0.68;0.60;;;;;;;11.86;44.72;94019.78;5027963;28;20444;-79
2022/09/20 08:30:49;;;;;;;1.75;0.70;;;;;;;11.99;44.34;94013.50;5027711;28;20136;-79
2022/09/20 08:33:14;;;;;;;0.70;0.70;;;;;;;11.91;45.12;94032.97;5028898;28;20033;-79
2022/09/20 08:35:40;;;;;;;0.80;0.77;;;;;;;11.89;44.95;94013.03;5029489;28;20062;-80
2022/09/20 08:38:06;;;;;;;0.75;0.75;;;;;;;11.93;44.93;93988.09;5026504;28;20100;-81
2022/09/20 08:40:32;;;;;;;0.80;0.80;;;;;;;12.20;45.17;94004.84;5028292;28;20059;-80
2022/09/20 08:42:59;;;;;;;0.95;0.95;;;;;;;12.21;44.89;93987.75;5031373;28;20112;-80
2022/09/20 08:45:25;;;;;;;0.70;0.70;;;;;;;12.42;43.68;94017.94;5059282;28;20072;-79
2022/09/20 08:47:55;;;;;;;0.70;0.70;;;;;;;12.54;43.98;94012.72;5027757;28;20480;-79
2022/09/20 08:50:21;;;;;;;0.70;0.70;;;;;;;12.50;43.94;93979.78;5024474;28;20044;-80
2022/09/20 08:52:52;;;;;;;0.80;0.80;;;;;;;12.66;43.29;93982.72;5025302;28;20025;-79
2022/09/20 08:55:22;;;;;;;0.70;0.70;;;;;;;12.32;42.63;93951.63;5025941;28;20044;-80
2022/09/20 08:57:50;;;;;;;0.75;0.70;;;;;;;12.75;42.59;94008.28;5021742;28;20083;-79
2022/09/20 09:00:19;;;;;;;0.80;0.80;;;;;;;12.96;42.47;94012.88;5022360;28;20028;-81
2022/09/20 09:02:45;;;;;;;0.98;0.60;;;;;;;12.62;42.19;93974.56;5055273;28;20021;-79
2022/09/20 09:05:43;;;;;;;1.45;1.00;;;;;;;12.99;42.52;93998.88;5022870;28;20026;-80
2022/09/20 09:08:18;;;;;;;1.30;0.90;;;;;;;12.81;42.20;94003.53;5022083;28;20034;-80
2022/09/20 09:10:53;;;;;;;1.05;0.70;;;;;;;12.64;42.72;93953.69;5022764;28;20075;-80
2022/09/20 09:13:34;;;;;;;1.05;0.90;;;;;;;12.87;42.37;93989.66;5024777;28;20025;-79
2022/09/20 09:16:06;;;;;;;1.58;1.02;;;;;;;12.90;41.90;93977.59;5026899;28;20041;-79
2022/09/20 09:18:36;;;;;;;1.55;0.70;;;;;;;12.85;41.35;93949.19;5022334;28;20470;-79
2022/09/20 09:21:06;;;;;;;0.70;0.70;;;;;;;12.86;42.00;93977.44;5024054;28;20045;-79
2022/09/20 09:23:48;;;;;;;1.02;0.70;;;;;;;12.83;42.81;93986.09;5024472;28;20111;-79
2022/09/20 09:26:22;;;;;;;0.63;0.60;;;;;;;12.54;41.26;93970.03;5023918;28;20055;-80
2022/09/20 09:29:15;;;;;;;0.70;0.70;;;;;;;12.89;41.44;93978.69;5019639;28;20051;-79
2022/09/20 09:31:41;;;;;;;2.50;0.80;;;;;;;12.62;40.81;93957.78;5021938;28;20455;-80
2022/09/20 09:34:25;;;;;;;0.80;0.80;;;;;;;12.86;41.29;93977.44;5021733;28;20083;-79
2022/09/20 09:36:53;;;;;;;0.70;0.70;;;;;;;12.54;40.89;93906.00;5023269;28;20090;-80
2022/09/20 09:39:24;;;;;;;0.70;0.70;;;;;;;12.80;41.30;93957.38;5039198;28;20025;-80
2022/09/20 09:41:50;;;;;;;0.90;0.90;;;;;;;12.63;41.61;93930.78;5022183;28;20041;-80
2022/09/20 09:44:26;;;;;;;1.60;0.70;;;;;;;12.61;41.39;93921.56;5018055;28;20048;-79
2022/09/20 09:46:52;;;;;;;0.63;0.63;;;;;;;12.91;41.77;93955.09;5023885;28;20420;-79
2022/09/20 09:49:23;;;;;;;0.60;0.60;;;;;;;12.95;40.45;93961.38;5022586;28;20108;-79
2022/09/20 09:52:14;;;;;;;1.00;0.80;;;;;;;12.96;40.19;93956.81;5026004;28;20028;-80
2022/09/20 09:54:58;;;;;;;0.60;0.60;;;;;;;12.95;41.67;93963.25;5023849;28;20036;-79
2022/09/20 09:57:42;;;;;;;0.60;0.60;;;;;;;12.91;41.05;93962.34;5053530;28;20160;-79
2022/09/20 10:00:13;;;;;;;1.67;0.77;;;;;;;13.05;40.55;93952.22;5025084;28;20044;-79
2022/09/20 10:02:46;;;;;;;1.98;1.17;;;;;;;13.22;41.00;93958.19;5039719;28;20471;-79
2022/09/20 10:05:54;;;;;;;1.60;1.20;;;;;;;13.39;39.46;93951.94;5022856;28;20151;-79
2022/09/20 10:08:44;;;;;;;1.35;0.70;;;;;;;13.45;38.94;93947.94;5024245;28;20033;-80
2022/09/20 10:11:32;;;;;;;1.30;0.50;;;;;;;13.42;39.19;93955.84;5022517;28;20032;-80
2022/09/20 10:14:06;;;;;;;0.60;0.60;;;;;;;13.50;39.42;93954.97;5024123;28;20439;-80
2022/09/20 10:17:01;;;;;;;0.60;0.60;;;;;;;13.36;38.53;93923.19;5030345;28;20029;-79
2022/09/20 10:19:47;;;;;;;2.38;0.60;;;;;;;13.29;39.10;93947.78;5018683;28;20048;-79
2022/09/20 10:22:45;;;;;;;0.95;0.90;;;;;;;13.13;40.20;93954.03;5022875;28;20045;-79
2022/09/20 10:25:30;;;;;;;6.25;2.55;;;;;;;13.16;39.81;93948.03;5020755;28;20041;-80
2022/09/20 10:28:20;;;;;;;1.85;1.02;;;;;;;13.28;40.00;93956.13;5024044;28;20033;-79
2022/09/20 10:31:06;;;;;;;1.27;1.10;;;;;;;13.26;39.88;93942.28;5016703;28;20090;-78
2022/09/20 10:33:49;;;;;;;0.70;0.70;;;;;;;13.37;39.81;93956.81;5021231;28;20025;-78
2022/09/20 10:36:52;;;;;;;8.10;3.05;;;;;;;12.92;39.83;93878.47;5052623;28;20504;-78
2022/09/20 10:39:37;;;;;;;1.05;0.82;;;;;;;13.31;38.97;93939.44;5008348;28;20390;-79
2022/09/20 10:45:22;;;;;;;6.05;2.80;;;;;;;13.22;39.65;93952.06;5030898;28;19923;-78
2022/09/20 10:47:50;;;;;;;1.75;1.20;;;;;;;13.12;39.42;93947.13;5022013;28;20111;-79
2022/09/20 10:50:21;;;;;;;2.45;1.10;;;;;;;13.15;38.95;93946.47;5024273;28;20036;-80
2022/09/20 10:53:18;;;;;;;0.90;0.90;;;;;;;13.24;38.55;93944.53;5022581;28;20121;-78
2022/09/20 10:55:58;;;;;;;1.65;1.00;;;;;;;13.29;38.76;93949.66;5024957;28;20049;-78
2022/09/20 10:58:39;;;;;;;1.48;1.00;;;;;;;13.31;38.79;93940.22;5021960;28;20386;-78
2022/09/20 11:01:41;;;;;;;1.42;1.30;;;;;;;13.45;38.45;93939.94;5026620;28;20029;-78
2022/09/20 11:04:21;;;;;;;5.43;2.95;;;;;;;13.53;38.66;93949.78;5024608;28;20053;-79
2022/09/20 11:06:47;;;;;;;1.23;1.10;;;;;;;13.26;38.61;93943.06;5055617;28;20098;-77
2022/09/20 11:09:18;;;;;;;2.25;1.00;;;;;;;13.35;39.28;93936.91;5024492;28;20025;-78
2022/09/20 11:12:09;;;;;;;1.50;1.40;;;;;;;13.31;38.29;93928.75;5021857;28;20044;-77
2022/09/20 11:14:42;;;;;;;1.75;1.20;;;;;;;13.16;38.46;93932.00;5022253;28;20706;-79
2022/09/20 11:17:26;;;;;;;1.60;1.48;;;;;;;13.19;37.83;93931.38;5020335;28;20112;-79
2022/09/20 11:20:29;;;;;;;1.10;1.00;;;;;;;13.10;37.97;93931.44;5024301;28;20021;-78
2022/09/20 11:23:10;;;;;;;2.42;1.73;;;;;;;13.23;38.39;93910.91;5004673;28;20044;-80
2022/09/20 11:25:43;;;;;;;2.45;1.58;;;;;;;13.22;37.74;93925.38;5024694;28;20037;-77
2022/09/20 11:28:18;;;;;;;1.00;1.00;;;;;;;13.01;37.98;93887.97;5026293;28;20021;-77
2022/09/20 11:30:54;;;;;;;4.07;2.72;;;;;;;13.15;38.60;93898.41;5027296;28;20555;-79
2022/09/20 11:33:32;;;;;;;1.42;1.23;;;;;;;13.14;38.49;93889.63;5026879;28;20029;-77
2022/09/20 11:36:02;;;;;;;1.20;1.10;;;;;;;13.33;38.84;93900.63;5027724;28;20023;-79
2022/09/20 11:38:36;;;;;;;0.95;0.95;;;;;;;13.35;38.73;93900.25;5024099;28;20036;-79
2022/09/20 11:41:12;;;;;;;1.10;1.00;;;;;;;13.55;38.77;93896.00;5029315;28;20560;-79
2022/09/20 11:43:41;;;;;;;0.85;0.85;;;;;;;13.65;38.17;93917.78;5027500;28;20037;-79
2022/09/20 11:46:12;;;;;;;0.80;0.80;;;;;;;13.63;38.23;93912.00;5028086;28;20028;-78
2022/09/20 11:48:43;;;;;;;1.73;1.00;;;;;;;13.64;38.43;93905.53;5026161;28;20021;-77
2022/09/20 11:51:49;;;;;;;1.73;1.00;;;;;;;13.29;38.26;93861.53;5058450;28;20032;-77
2022/09/20 11:54:22;;;;;;;1.23;1.10;;;;;;;13.56;38.17;93903.69;5035987;28;20465;-78
2022/09/20 11:56:51;;;;;;;0.88;0.88;;;;;;;13.57;37.83;93873.19;5060949;28;20107;-79
2022/09/20 11:59:35;;;;;;;0.70;0.70;;;;;;;13.73;37.40;93895.56;5027437;28;20017;-80
2022/09/20 12:02:11;;;;;;;0.70;0.70;;;;;;;13.49;37.55;93865.28;5040969;28;20060;-79
2022/09/20 12:04:41;;;;;;;0.90;0.82;;;;;;;13.64;37.41;93878.78;5028434;28;20529;-79
2022/09/20 12:07:18;;;;;;;0.63;0.63;;;;;;;13.37;37.41;93852.66;5026798;28;20078;-80
2022/09/20 12:09:50;;;;;;;0.75;0.75;;;;;;;13.70;37.04;93901.53;5029090;28;20025;-81
2022/09/20 12:12:34;;;;;;;0.63;0.60;;;;;;;13.57;37.19;93894.56;5025976;28;20036;-79
2022/09/20 12:15:04;;;;;;;0.68;0.68;;;;;;;13.42;36.56;93876.47;5059076;28;20021;-79
2022/09/20 12:17:44;;;;;;;0.73;0.70;;;;;;;13.76;36.59;93888.75;5029391;28;20025;-81
2022/09/20 12:20:37;;;;;;;0.60;0.60;;;;;;;13.84;36.95;93893.22;5027653;28;20098;-79
2022/09/20 12:23:40;;;;;;;0.60;0.60;;;;;;;14.00;36.26;93885.34;5027179;28;20029;-80
2022/09/20 12:26:20;;;;;;;0.70;0.70;;;;;;;14.03;35.66;93879.34;5027286;28;20025;-80
2022/09/20 12:28:52;;;;;;;0.80;0.80;;;;;;;13.84;36.20;93877.16;5057357;28;20384;-79
2022/09/20 12:31:17;;;;;;;0.93;0.70;;;;;;;13.97;36.42;93886.78;5028092;28;20498;-80
2022/09/20 12:34:11;;;;;;;0.70;0.70;;;;;;;14.05;34.69;93882.44;5026254;28;20074;-77
2022/09/20 12:36:42;;;;;;;0.57;0.57;;;;;;;14.02;34.77;93869.75;5025167;28;20532;-80